createdAt,value
2023-05-08T00:01:16.284Z,68.00
2023-05-08T00:03:44.528Z,68.10
2023-05-08T00:06:12.775Z,68.30
2023-05-08T00:08:42.233Z,68.20
2023-05-08T00:11:10.379Z,68.40
2023-05-08T00:13:38.441Z,68.40
2023-05-08T00:16:09.281Z,68.30
2023-05-08T00:18:38.571Z,68.40
2023-05-08T00:21:06.941Z,68.30
2023-05-08T00:23:35.519Z,68.30
2023-05-08T00:26:05.178Z,68.30
2023-05-08T00:28:33.251Z,68.30
2023-05-08T00:31:02.281Z,68.20
2023-05-08T00:33:30.507Z,68.10
2023-05-08T00:36:01.903Z,68.10
2023-05-08T00:38:32.247Z,68.30
2023-05-08T00:41:00.997Z,68.20
2023-05-08T00:43:30.544Z,68.00
2023-05-08T00:46:01.020Z,68.10
2023-05-08T00:48:31.860Z,68.20
2023-05-08T00:51:00.208Z,68.10
2023-05-08T00:53:29.736Z,68.10
2023-05-08T00:55:58.445Z,68.20
2023-05-08T00:58:28.181Z,68.20
2023-05-08T01:00:59.572Z,68.30
2023-05-08T01:03:28.669Z,68.50
2023-05-08T01:05:56.834Z,68.40
2023-05-08T01:08:25.110Z,68.30
2023-05-08T01:11:01.986Z,68.50
2023-05-08T01:13:39.092Z,68.80
2023-05-08T01:16:16.053Z,69.00
2023-05-08T01:18:48.923Z,69.10
2023-05-08T01:21:24.623Z,69.00
2023-05-08T01:24:11.416Z,69.10
2023-05-08T01:27:19.660Z,69.30
2023-05-08T01:30:31.853Z,69.60
2023-05-08T01:33:05.722Z,69.70
2023-05-08T01:35:44.300Z,69.50
2023-05-08T01:38:20.812Z,69.40
2023-05-08T01:40:55.759Z,69.80
2023-05-08T01:43:31.009Z,69.90
2023-05-08T01:46:04.089Z,70.00
2023-05-08T01:48:39.104Z,69.90
2023-05-08T01:51:09.837Z,70.20
2023-05-08T01:53:40.299Z,70.10
2023-05-08T01:56:13.349Z,70.00
2023-05-08T01:58:42.519Z,70.30
2023-05-08T02:01:11.881Z,70.00
2023-05-08T02:03:43.023Z,70.20
2023-05-08T02:06:13.748Z,70.40
2023-05-08T02:08:44.618Z,70.20
2023-05-08T02:11:14.326Z,70.40
2023-05-08T02:13:43.931Z,70.40
2023-05-08T02:16:13.710Z,70.30
2023-05-08T02:18:49.573Z,70.40
2023-05-08T02:21:18.706Z,70.60
2023-05-08T02:23:47.954Z,70.40
2023-05-08T02:26:17.499Z,70.40
2023-05-08T02:28:46.890Z,70.50
2023-05-08T02:31:15.381Z,70.50
2023-05-08T02:33:45.795Z,70.60
2023-05-08T02:36:17.815Z,70.60
2023-05-08T02:38:48.380Z,70.70
2023-05-08T02:41:18.554Z,70.70
2023-05-08T02:43:47.077Z,70.70
2023-05-08T02:46:19.768Z,70.70
2023-05-08T02:48:58.935Z,70.90
2023-05-08T02:51:34.769Z,71.10
2023-05-08T02:54:10.336Z,70.50
2023-05-08T02:56:41.858Z,70.70
2023-05-08T02:59:17.852Z,70.80
2023-05-08T03:01:51.820Z,71.00
2023-05-08T03:04:28.146Z,71.10
2023-05-08T03:06:59.097Z,71.30
2023-05-08T03:09:37.940Z,71.20
2023-05-08T03:12:11.146Z,71.40
2023-05-08T03:14:46.002Z,71.30
2023-05-08T03:17:18.346Z,71.40
2023-05-08T03:19:53.476Z,71.40
2023-05-08T03:22:23.962Z,71.50
2023-05-08T03:24:54.684Z,71.40
2023-05-08T03:27:23.628Z,71.40
2023-05-08T03:29:53.171Z,71.60
2023-05-08T03:32:22.644Z,71.80
2023-05-08T03:34:53.949Z,72.00
2023-05-08T03:37:22.449Z,72.50
2023-05-08T03:39:51.967Z,72.10
2023-05-08T03:42:22.184Z,72.20
2023-05-08T03:44:52.343Z,72.30
2023-05-08T03:47:21.433Z,72.50
2023-05-08T03:49:51.715Z,72.60
2023-05-08T03:52:19.982Z,72.60
2023-05-08T03:54:48.117Z,72.80
2023-05-08T03:57:16.226Z,72.80
2023-05-08T03:59:51.808Z,73.20
2023-05-08T04:02:27.828Z,73.30
2023-05-08T04:05:04.951Z,73.60
2023-05-08T04:07:37.238Z,74.00
2023-05-08T04:10:11.243Z,73.60
2023-05-08T04:12:46.435Z,74.00
2023-05-08T04:15:21.523Z,74.10
2023-05-08T04:17:53.050Z,74.50
2023-05-08T04:20:25.583Z,74.50
2023-05-08T04:22:56.100Z,74.70
2023-05-08T04:25:24.410Z,74.90
2023-05-08T04:27:53.228Z,74.70
2023-05-08T04:30:21.833Z,75.00
2023-05-08T04:32:51.004Z,75.20
2023-05-08T04:35:19.355Z,75.40
2023-05-08T04:37:49.428Z,75.20
2023-05-08T04:40:17.482Z,75.60
2023-05-08T04:42:47.517Z,75.30
2023-05-08T04:45:16.350Z,75.40
2023-05-08T04:47:44.460Z,75.60
2023-05-08T04:50:13.072Z,75.60
2023-05-08T04:52:41.434Z,76.00
2023-05-08T04:55:11.847Z,76.10
2023-05-08T04:57:40.140Z,76.60
2023-05-08T05:00:09.575Z,76.40
2023-05-08T05:02:37.745Z,76.40
2023-05-08T05:05:06.476Z,76.60
2023-05-08T05:07:34.623Z,76.60
2023-05-08T05:10:02.782Z,76.60
2023-05-08T05:12:32.264Z,76.60
2023-05-08T05:15:00.342Z,76.90
2023-05-08T05:17:28.895Z,76.90
2023-05-08T05:19:57.424Z,76.90
2023-05-08T05:22:25.518Z,76.70
2023-05-08T05:24:53.727Z,76.90
2023-05-08T05:27:21.922Z,76.90
2023-05-08T05:29:51.527Z,76.80
2023-05-08T05:32:20.698Z,76.80
2023-05-08T05:34:48.863Z,76.60
2023-05-08T05:37:16.994Z,76.70
2023-05-08T05:39:45.068Z,76.90
2023-05-08T05:42:13.190Z,77.00
2023-05-08T05:44:41.273Z,77.00
2023-05-08T05:47:11.250Z,77.20
2023-05-08T05:49:39.965Z,77.50
2023-05-08T05:52:08.035Z,77.40
2023-05-08T05:54:36.151Z,77.40
2023-05-08T05:57:04.449Z,77.40
2023-05-08T05:59:32.953Z,77.40
2023-05-08T06:02:01.078Z,77.40
2023-05-08T06:04:30.892Z,77.50
2023-05-08T06:06:58.981Z,77.90
2023-05-08T06:09:27.058Z,77.70
2023-05-08T06:11:55.120Z,77.80
2023-05-08T06:14:23.193Z,77.80
2023-05-08T06:16:51.531Z,77.90
2023-05-08T06:19:19.754Z,78.00
2023-05-08T06:21:50.250Z,78.30
2023-05-08T06:24:18.364Z,78.50
2023-05-08T06:26:46.755Z,78.30
2023-05-08T06:29:14.851Z,78.10
2023-05-08T06:31:43.353Z,78.10
2023-05-08T06:34:11.465Z,77.80
2023-05-08T06:36:39.565Z,77.70
2023-05-08T06:39:09.128Z,77.90
2023-05-08T06:41:37.247Z,78.20
2023-05-08T06:44:05.483Z,78.10
2023-05-08T06:46:33.695Z,78.10
2023-05-08T06:49:02.102Z,78.10
2023-05-08T06:51:30.173Z,77.90
2023-05-08T06:53:58.431Z,77.80
2023-05-08T06:56:28.047Z,77.80
2023-05-08T06:59:05.044Z,77.70
2023-05-08T07:01:37.433Z,77.60
2023-05-08T07:04:06.070Z,77.60
2023-05-08T07:06:34.198Z,77.70
2023-05-08T07:09:02.810Z,77.70
2023-05-08T07:11:32.268Z,77.70
2023-05-08T07:14:00.491Z,77.80
2023-05-08T07:16:28.607Z,78.00
2023-05-08T07:18:56.734Z,78.10
2023-05-08T07:21:25.094Z,78.30
2023-05-08T07:23:53.903Z,78.70
2023-05-08T07:26:22.754Z,78.80
2023-05-08T07:28:54.210Z,78.90
2023-05-08T07:31:22.523Z,79.40
2023-05-08T07:33:50.763Z,79.30
2023-05-08T07:36:18.894Z,79.00
2023-05-08T07:38:46.973Z,79.30
2023-05-08T07:41:15.081Z,79.50
2023-05-08T07:43:45.227Z,79.70
2023-05-08T07:46:19.347Z,79.70
2023-05-08T07:48:47.492Z,80.00
2023-05-08T07:51:15.860Z,79.50
2023-05-08T07:53:44.673Z,79.60
2023-05-08T07:56:12.901Z,79.50
2023-05-08T07:58:42.559Z,79.30
2023-05-08T08:01:10.784Z,79.10
2023-05-08T08:03:40.361Z,79.00
2023-05-08T08:06:08.792Z,79.20
2023-05-08T08:08:36.855Z,79.40
2023-05-08T08:11:05.030Z,79.50
2023-05-08T08:13:33.736Z,79.70
2023-05-08T08:16:03.965Z,79.60
2023-05-08T08:18:34.796Z,79.60
2023-05-08T08:21:06.611Z,79.50
2023-05-08T08:23:34.883Z,79.90
2023-05-08T08:26:02.938Z,79.60
2023-05-08T08:28:31.172Z,79.60
2023-05-08T08:30:59.302Z,79.60
2023-05-08T08:33:28.957Z,79.30
2023-05-08T08:35:57.412Z,79.50
2023-05-08T08:38:27.200Z,79.10
2023-05-08T08:40:55.522Z,78.30
2023-05-08T08:43:23.588Z,78.10
2023-05-08T08:45:51.797Z,78.60
2023-05-08T08:48:21.380Z,78.00
2023-05-08T08:50:53.900Z,77.30
2023-05-08T08:53:27.313Z,77.40
2023-05-08T08:55:59.235Z,77.60
2023-05-08T08:58:33.935Z,77.70
2023-05-08T09:01:05.559Z,77.00
2023-05-08T09:03:34.069Z,77.40
2023-05-08T09:06:02.641Z,77.40
2023-05-08T09:08:30.827Z,77.60
2023-05-08T09:11:03.455Z,77.50
2023-05-08T09:13:31.735Z,76.90
2023-05-08T09:16:00.686Z,76.30
2023-05-08T09:18:28.963Z,76.30
2023-05-08T09:20:58.325Z,76.10
2023-05-08T09:23:26.585Z,75.80
2023-05-08T09:25:54.819Z,76.00
2023-05-08T09:28:26.147Z,74.80
2023-05-08T09:30:56.460Z,74.90
2023-05-08T09:33:27.026Z,75.30
2023-05-08T09:35:55.866Z,74.80
2023-05-08T09:38:37.951Z,74.80
2023-05-08T09:41:14.395Z,74.00
2023-05-08T09:43:44.966Z,73.80
2023-05-08T09:46:24.558Z,73.80
2023-05-08T09:48:54.353Z,73.30
2023-05-08T09:51:23.218Z,73.70
2023-05-08T09:53:53.577Z,73.50
2023-05-08T09:56:33.057Z,73.10
2023-05-08T09:59:04.667Z,72.70
2023-05-08T10:01:35.552Z,72.80
2023-05-08T10:04:05.863Z,72.90
2023-05-08T10:06:36.391Z,73.40
2023-05-08T10:09:14.918Z,73.40
2023-05-08T10:11:53.376Z,73.80
2023-05-08T10:14:24.720Z,73.50
2023-05-08T10:16:54.500Z,73.50
2023-05-08T10:19:24.132Z,73.30
2023-05-08T10:21:53.860Z,73.00
2023-05-08T10:24:27.393Z,73.40
2023-05-08T10:27:06.266Z,73.20
2023-05-08T10:29:48.425Z,72.70
2023-05-08T10:32:21.140Z,72.40
2023-05-08T10:34:53.994Z,72.30
2023-05-08T10:37:22.188Z,72.40
2023-05-08T10:39:51.395Z,72.60
2023-05-08T10:42:19.990Z,72.70
2023-05-08T10:44:49.919Z,73.40
2023-05-08T10:47:23.899Z,72.50
2023-05-08T10:50:01.539Z,73.00
2023-05-08T10:52:36.008Z,72.90
2023-05-08T10:55:29.395Z,72.80
2023-05-08T10:58:10.268Z,72.40
2023-05-08T11:01:25.925Z,73.40
2023-05-08T11:03:56.708Z,73.70
2023-05-08T11:06:49.378Z,74.00
2023-05-08T11:09:24.679Z,74.20
2023-05-08T11:12:14.464Z,74.40
2023-05-08T11:14:45.098Z,74.70
2023-05-08T11:17:13.466Z,74.60
2023-05-08T11:19:57.635Z,74.10
2023-05-08T11:22:29.193Z,74.70
2023-05-08T11:25:02.973Z,74.50
2023-05-08T11:28:01.994Z,74.00
2023-05-08T11:30:39.148Z,73.70
2023-05-08T11:33:15.526Z,73.50
2023-05-08T11:35:55.344Z,73.90
2023-05-08T11:38:32.185Z,74.00
2023-05-08T11:41:02.856Z,73.50
2023-05-08T11:43:59.781Z,73.00
2023-05-08T11:46:40.582Z,73.50
2023-05-08T11:49:14.366Z,73.30
2023-05-08T11:51:45.371Z,73.20
2023-05-08T11:54:18.254Z,73.20
2023-05-08T11:56:48.123Z,74.10
2023-05-08T11:59:16.893Z,73.40
2023-05-08T12:01:59.884Z,73.20
2023-05-08T12:04:44.689Z,72.10
2023-05-08T12:07:12.874Z,71.40
2023-05-08T12:09:41.056Z,71.40
2023-05-08T12:12:09.458Z,71.20
2023-05-08T12:14:37.576Z,71.50
2023-05-08T12:17:07.297Z,71.60
2023-05-08T12:19:35.582Z,71.80
2023-05-08T12:22:03.705Z,71.70
2023-05-08T12:24:32.186Z,72.20
2023-05-08T12:27:00.289Z,72.00
2023-05-08T12:29:28.393Z,71.90
2023-05-08T12:31:56.764Z,71.70
2023-05-08T12:34:26.570Z,71.70
2023-05-08T12:37:03.929Z,71.90
2023-05-08T12:39:37.504Z,71.50
2023-05-08T12:42:05.952Z,71.10
2023-05-08T12:44:34.037Z,71.30
2023-05-08T12:47:02.317Z,70.90
2023-05-08T12:49:33.300Z,70.60
2023-05-08T12:52:08.922Z,70.10
2023-05-08T12:54:38.196Z,69.70
2023-05-08T12:57:12.812Z,69.70
2023-05-08T12:59:41.223Z,69.30
2023-05-08T13:02:16.958Z,69.30
2023-05-08T13:04:47.165Z,68.90
2023-05-08T13:07:15.683Z,69.40
2023-05-08T13:09:59.078Z,69.10
2023-05-08T13:12:27.056Z,68.40
2023-05-08T13:14:55.119Z,69.30
2023-05-08T13:17:23.327Z,68.50
2023-05-08T13:19:52.870Z,68.30
2023-05-08T13:22:23.147Z,68.00
2023-05-08T13:24:51.298Z,67.70
2023-05-08T13:27:19.609Z,67.60
2023-05-08T13:29:47.763Z,67.20
2023-05-08T13:32:15.891Z,66.90
2023-05-08T13:34:49.842Z,67.00
2023-05-08T13:37:21.076Z,66.60
2023-05-08T13:39:49.203Z,66.30
2023-05-08T13:42:17.287Z,66.60
2023-05-08T13:44:45.634Z,66.40
2023-05-08T13:47:13.818Z,66.50
2023-05-08T13:49:41.919Z,66.10
2023-05-08T13:52:09.991Z,66.10
2023-05-08T13:54:39.469Z,65.90
2023-05-08T13:57:08.126Z,65.60
2023-05-08T13:59:36.410Z,65.70
2023-05-08T14:02:04.538Z,65.70
2023-05-08T14:04:33.257Z,65.40
2023-05-08T14:07:01.570Z,65.60
2023-05-08T14:09:29.695Z,65.50
2023-05-08T14:11:59.209Z,65.60
2023-05-08T14:14:27.287Z,65.70
2023-05-08T14:16:55.359Z,65.80
2023-05-08T14:19:23.493Z,65.50
2023-05-08T14:21:52.106Z,65.40
2023-05-08T14:24:20.257Z,65.00
2023-05-08T14:26:48.351Z,64.40
2023-05-08T14:29:19.177Z,64.20
2023-05-08T14:31:47.543Z,64.30
2023-05-08T14:34:15.723Z,64.40
2023-05-08T14:36:43.826Z,64.40
2023-05-08T14:39:11.956Z,64.50
2023-05-08T14:41:40.061Z,64.20
2023-05-08T14:44:08.278Z,64.50
2023-05-08T14:46:37.790Z,64.20
2023-05-08T14:49:06.629Z,63.80
2023-05-08T14:51:34.683Z,63.80
2023-05-08T14:54:02.948Z,63.40
2023-05-08T14:56:37.369Z,63.40
2023-05-08T14:59:15.118Z,63.20
2023-05-08T15:01:44.686Z,63.60
2023-05-08T15:04:13.044Z,63.00
2023-05-08T15:06:41.500Z,63.40
2023-05-08T15:09:10.276Z,63.20
2023-05-08T15:11:38.642Z,63.30
2023-05-08T15:14:06.977Z,63.30
2023-05-08T15:16:35.149Z,63.40
2023-05-08T15:19:04.627Z,63.60
2023-05-08T15:21:32.702Z,63.40
2023-05-08T15:24:00.860Z,63.50
2023-05-08T15:26:28.944Z,63.50
2023-05-08T15:28:56.978Z,63.70
2023-05-08T15:31:25.170Z,63.80
2023-05-08T15:33:53.307Z,63.80
2023-05-08T15:36:22.822Z,63.90
2023-05-08T15:38:50.921Z,64.10
2023-05-08T15:41:18.970Z,64.10
2023-05-08T15:43:47.902Z,64.20
2023-05-08T15:46:16.265Z,64.50
2023-05-08T15:48:44.798Z,64.50
2023-05-08T15:51:12.968Z,64.50
2023-05-08T15:53:42.460Z,64.30
2023-05-08T15:56:10.528Z,64.30
2023-05-08T15:58:39.218Z,64.30
2023-05-08T16:01:07.439Z,64.20
2023-05-08T16:03:35.846Z,64.20
2023-05-08T16:06:04.136Z,64.30
2023-05-08T16:08:32.588Z,64.20
2023-05-08T16:11:02.428Z,64.20
2023-05-08T16:13:30.501Z,64.00
2023-05-08T16:16:04.637Z,63.90
2023-05-08T16:18:32.909Z,63.50
2023-05-08T16:21:01.082Z,63.80
2023-05-08T16:23:29.345Z,63.60
2023-05-08T16:25:57.397Z,63.80
2023-05-08T16:28:26.842Z,64.50
2023-05-08T16:30:54.978Z,63.90
2023-05-08T16:33:23.115Z,63.80
2023-05-08T16:35:51.301Z,63.80
2023-05-08T16:38:19.387Z,63.50
2023-05-08T16:40:47.447Z,63.30
2023-05-08T16:43:15.570Z,63.30
2023-05-08T16:45:45.106Z,63.30
2023-05-08T16:48:13.193Z,63.00
2023-05-08T16:50:41.318Z,63.30
2023-05-08T16:53:09.461Z,63.50
2023-05-08T16:55:37.574Z,63.30
2023-05-08T16:58:07.105Z,63.20
2023-05-08T17:00:35.385Z,63.20
2023-05-08T17:03:05.008Z,63.50
2023-05-08T17:05:33.458Z,63.70
2023-05-08T17:08:01.603Z,63.70
2023-05-08T17:10:29.972Z,63.70
2023-05-08T17:12:58.051Z,63.70
2023-05-08T17:15:26.139Z,63.90
2023-05-08T17:17:55.956Z,63.70
2023-05-08T17:20:25.525Z,63.60
2023-05-08T17:22:54.584Z,63.40
2023-05-08T17:25:23.385Z,64.30
2023-05-08T17:27:51.468Z,63.80
2023-05-08T17:30:19.605Z,63.60
2023-05-08T17:32:52.389Z,63.90
2023-05-08T17:35:21.440Z,63.90
2023-05-08T17:37:50.896Z,64.20
2023-05-08T17:40:18.954Z,64.10
2023-05-08T17:42:46.992Z,64.10
2023-05-08T17:45:16.384Z,63.70
2023-05-08T17:47:44.535Z,63.60
2023-05-08T17:50:13.082Z,63.90
2023-05-08T17:52:41.382Z,64.10
2023-05-08T17:55:11.849Z,64.10
2023-05-08T17:57:39.924Z,64.00
2023-05-08T18:00:09.309Z,64.30
2023-05-08T18:02:37.515Z,64.40
2023-05-08T18:05:06.114Z,64.50
2023-05-08T18:07:34.201Z,64.50
2023-05-08T18:10:02.387Z,64.60
2023-05-08T18:12:33.478Z,64.70
2023-05-08T18:15:03.538Z,64.70
2023-05-08T18:17:31.648Z,64.90
2023-05-08T18:19:59.920Z,65.00
2023-05-08T18:22:27.985Z,65.20
2023-05-08T18:24:57.127Z,65.40
2023-05-08T18:27:26.624Z,65.40
2023-05-08T18:29:56.279Z,65.60
2023-05-08T18:32:24.391Z,65.70
2023-05-08T18:34:52.595Z,65.80
2023-05-08T18:37:20.679Z,66.00
2023-05-08T18:39:48.800Z,66.10
2023-05-08T18:42:17.085Z,66.30
2023-05-08T18:44:45.215Z,66.50
2023-05-08T18:47:14.658Z,66.70
2023-05-08T18:49:43.938Z,66.90
2023-05-08T18:52:12.112Z,67.10
2023-05-08T18:54:40.516Z,67.20
2023-05-08T18:57:08.609Z,67.20
2023-05-08T18:59:36.861Z,67.30
2023-05-08T19:02:04.971Z,67.30
2023-05-08T19:04:34.453Z,67.50
2023-05-08T19:07:02.616Z,67.90
2023-05-08T19:09:30.739Z,68.00
2023-05-08T19:11:59.051Z,68.30
2023-05-08T19:14:27.138Z,68.40
2023-05-08T19:16:58.249Z,68.80
2023-05-08T19:19:27.592Z,68.90
2023-05-08T19:21:57.509Z,69.10
2023-05-08T19:24:29.797Z,69.40
2023-05-08T19:26:59.003Z,69.40
2023-05-08T19:29:27.341Z,69.60
2023-05-08T19:31:56.441Z,69.70
2023-05-08T19:34:24.797Z,70.00
2023-05-08T19:36:52.915Z,70.30
2023-05-08T19:39:22.408Z,70.50
2023-05-08T19:41:50.556Z,70.80
2023-05-08T19:44:18.650Z,70.80
2023-05-08T19:46:46.776Z,70.90
2023-05-08T19:49:17.274Z,71.10
2023-05-08T19:51:45.725Z,71.10
2023-05-08T19:54:14.195Z,71.10
2023-05-08T19:56:43.706Z,71.10
2023-05-08T19:59:11.992Z,71.30
2023-05-08T20:01:40.378Z,71.30
2023-05-08T20:04:08.671Z,71.50
2023-05-08T20:06:38.348Z,71.60
2023-05-08T20:09:06.881Z,71.80
2023-05-08T20:11:35.030Z,72.00
2023-05-08T20:14:04.576Z,72.10
2023-05-08T20:16:32.745Z,72.40
2023-05-08T20:19:01.685Z,72.40
2023-05-08T20:21:32.357Z,72.50
2023-05-08T20:24:00.656Z,72.70
2023-05-08T20:26:29.398Z,72.80
2023-05-08T20:28:57.688Z,72.80
2023-05-08T20:31:27.881Z,72.90
2023-05-08T20:33:56.046Z,73.00
2023-05-08T20:36:24.166Z,73.50
2023-05-08T20:38:52.333Z,72.90
2023-05-08T20:41:20.524Z,73.10
2023-05-08T20:43:48.592Z,73.10
2023-05-08T20:46:16.935Z,73.20
2023-05-08T20:48:46.503Z,73.30
2023-05-08T20:51:15.934Z,73.50
2023-05-08T20:53:44.175Z,73.40
2023-05-08T20:56:15.721Z,73.50
2023-05-08T20:58:46.097Z,73.50
2023-05-08T21:01:14.215Z,73.50
2023-05-08T21:03:42.488Z,73.60
2023-05-08T21:06:12.287Z,73.60
2023-05-08T21:08:40.418Z,73.80
2023-05-08T21:11:08.534Z,73.80
2023-05-08T21:13:36.626Z,74.00
2023-05-08T21:16:05.679Z,74.00
2023-05-08T21:18:33.765Z,74.20
2023-05-08T21:21:01.870Z,74.50
2023-05-08T21:23:31.551Z,74.60
2023-05-08T21:25:59.680Z,74.80
2023-05-08T21:28:27.731Z,74.70
2023-05-08T21:30:55.821Z,74.80
2023-05-08T21:33:23.925Z,74.90
2023-05-08T21:35:52.087Z,75.10
2023-05-08T21:38:20.143Z,75.30
2023-05-08T21:40:49.681Z,75.40
2023-05-08T21:43:17.753Z,75.80
2023-05-08T21:45:46.093Z,75.70
2023-05-08T21:48:14.171Z,75.90
2023-05-08T21:50:42.243Z,76.10
2023-05-08T21:53:10.346Z,76.20
2023-05-08T21:55:38.422Z,76.40
2023-05-08T21:58:07.954Z,76.50
2023-05-08T22:00:36.022Z,76.90
2023-05-08T22:03:04.165Z,76.80
2023-05-08T22:05:32.369Z,76.80
2023-05-08T22:08:00.442Z,76.90
2023-05-08T22:10:28.646Z,77.00
2023-05-08T22:12:56.817Z,77.00
2023-05-08T22:15:30.313Z,77.00
2023-05-08T22:17:59.329Z,77.30
2023-05-08T22:20:27.663Z,77.10
2023-05-08T22:22:55.856Z,77.10
2023-05-08T22:25:25.228Z,77.10
2023-05-08T22:27:53.418Z,77.10
2023-05-08T22:30:21.989Z,77.10
2023-05-08T22:32:55.996Z,77.10
2023-05-08T22:35:25.301Z,77.50
2023-05-08T22:37:53.810Z,77.20
2023-05-08T22:40:22.241Z,77.30
2023-05-08T22:42:53.396Z,77.30
2023-05-08T22:45:21.739Z,77.60
2023-05-08T22:47:51.608Z,77.50
2023-05-08T22:50:19.893Z,77.70
2023-05-08T22:52:48.002Z,77.80
2023-05-08T22:55:16.910Z,77.80
2023-05-08T22:57:45.286Z,77.90
2023-05-08T23:00:15.296Z,78.00
2023-05-08T23:02:43.408Z,78.10
2023-05-08T23:05:13.255Z,78.20
2023-05-08T23:07:41.999Z,78.30
2023-05-08T23:10:10.804Z,78.20
2023-05-08T23:12:38.882Z,78.30
2023-05-08T23:15:08.170Z,78.40
2023-05-08T23:17:36.352Z,78.50
2023-05-08T23:20:05.815Z,78.40
2023-05-08T23:22:35.314Z,78.50
2023-05-08T23:25:03.535Z,78.70
2023-05-08T23:27:31.596Z,78.60
2023-05-08T23:29:59.649Z,78.70
2023-05-08T23:32:27.763Z,78.70
2023-05-08T23:34:55.885Z,78.70
2023-05-08T23:37:23.998Z,78.70
2023-05-08T23:39:53.511Z,78.70
2023-05-08T23:42:21.690Z,78.80
2023-05-08T23:44:49.773Z,78.70
2023-05-08T23:47:19.366Z,78.80
2023-05-08T23:49:47.476Z,78.80
2023-05-08T23:52:15.676Z,78.80
2023-05-08T23:54:43.868Z,78.90
2023-05-08T23:57:13.384Z,78.90
2023-05-08T23:59:41.638Z,79.20
